sensor_id;sensor_type;location;lat;lon;timestamp;P1;durP1;ratioP1;P2;durP2;ratioP2
72125;SDS011;59999;51.676;22.650;2023-08-08T00:00:11;10.48;;;3.95;;
72125;SDS011;59999;51.676;22.650;2023-08-08T00:02:57;10.05;;;4.60;;
72125;SDS011;59999;51.676;22.650;2023-08-08T00:05:23;12.33;;;4.27;;
72125;SDS011;59999;51.676;22.650;2023-08-08T00:07:49;12.70;;;4.55;;
72125;SDS011;59999;51.676;22.650;2023-08-08T00:10:15;11.32;;;4.60;;
72125;SDS011;59999;51.676;22.650;2023-08-08T00:12:41;10.53;;;4.57;;
72125;SDS011;59999;51.676;22.650;2023-08-08T00:15:07;11.68;;;4.30;;
72125;SDS011;59999;51.676;22.650;2023-08-08T00:17:33;11.35;;;4.97;;
72125;SDS011;59999;51.676;22.650;2023-08-08T00:20:00;9.07;;;4.10;;
72125;SDS011;59999;51.676;22.650;2023-08-08T00:22:26;9.13;;;4.15;;
72125;SDS011;59999;51.676;22.650;2023-08-08T00:24:52;12.53;;;4.13;;
72125;SDS011;59999;51.676;22.650;2023-08-08T00:27:18;10.60;;;4.68;;
72125;SDS011;59999;51.676;22.650;2023-08-08T00:29:44;9.85;;;4.93;;
72125;SDS011;59999;51.676;22.650;2023-08-08T00:32:11;11.33;;;4.80;;
72125;SDS011;59999;51.676;22.650;2023-08-08T00:34:37;10.18;;;4.30;;
72125;SDS011;59999;51.676;22.650;2023-08-08T00:37:02;10.55;;;4.70;;
72125;SDS011;59999;51.676;22.650;2023-08-08T00:39:29;9.60;;;4.43;;
72125;SDS011;59999;51.676;22.650;2023-08-08T00:41:54;12.13;;;4.70;;
72125;SDS011;59999;51.676;22.650;2023-08-08T00:44:21;9.68;;;4.60;;
72125;SDS011;59999;51.676;22.650;2023-08-08T00:46:46;9.88;;;4.38;;
72125;SDS011;59999;51.676;22.650;2023-08-08T00:49:14;10.63;;;4.47;;
72125;SDS011;59999;51.676;22.650;2023-08-08T00:51:40;11.48;;;4.95;;
72125;SDS011;59999;51.676;22.650;2023-08-08T00:54:06;10.07;;;4.47;;
72125;SDS011;59999;51.676;22.650;2023-08-08T00:56:32;12.18;;;4.63;;
72125;SDS011;59999;51.676;22.650;2023-08-08T00:58:59;10.38;;;4.13;;
72125;SDS011;59999;51.676;22.650;2023-08-08T01:01:24;9.13;;;4.13;;
72125;SDS011;59999;51.676;22.650;2023-08-08T01:03:50;8.98;;;4.63;;
72125;SDS011;59999;51.676;22.650;2023-08-08T01:09:37;10.63;;;4.20;;
72125;SDS011;59999;51.676;22.650;2023-08-08T01:12:10;11.40;;;4.30;;
72125;SDS011;59999;51.676;22.650;2023-08-08T01:14:38;7.75;;;3.38;;
72125;SDS011;59999;51.676;22.650;2023-08-08T01:17:05;8.40;;;3.55;;
72125;SDS011;59999;51.676;22.650;2023-08-08T01:19:32;9.07;;;3.33;;
72125;SDS011;59999;51.676;22.650;2023-08-08T01:22:04;7.50;;;3.70;;
72125;SDS011;59999;51.676;22.650;2023-08-08T01:24:32;7.80;;;2.97;;
72125;SDS011;59999;51.676;22.650;2023-08-08T01:27:02;8.35;;;3.10;;
72125;SDS011;59999;51.676;22.650;2023-08-08T01:29:31;9.98;;;3.53;;
72125;SDS011;59999;51.676;22.650;2023-08-08T01:31:57;8.98;;;3.60;;
72125;SDS011;59999;51.676;22.650;2023-08-08T01:34:23;8.05;;;3.58;;
72125;SDS011;59999;51.676;22.650;2023-08-08T01:36:56;8.27;;;2.90;;
72125;SDS011;59999;51.676;22.650;2023-08-08T01:39:26;8.32;;;3.05;;
72125;SDS011;59999;51.676;22.650;2023-08-08T01:41:54;7.72;;;3.00;;
72125;SDS011;59999;51.676;22.650;2023-08-08T01:44:22;7.18;;;3.00;;
72125;SDS011;59999;51.676;22.650;2023-08-08T01:46:51;7.18;;;3.08;;
72125;SDS011;59999;51.676;22.650;2023-08-08T01:49:18;8.27;;;3.10;;
72125;SDS011;59999;51.676;22.650;2023-08-08T01:51:44;8.93;;;3.08;;
72125;SDS011;59999;51.676;22.650;2023-08-08T01:54:10;7.97;;;3.20;;
72125;SDS011;59999;51.676;22.650;2023-08-08T01:56:36;6.23;;;2.80;;
72125;SDS011;59999;51.676;22.650;2023-08-08T01:59:02;7.85;;;2.85;;
72125;SDS011;59999;51.676;22.650;2023-08-08T02:01:28;7.65;;;2.83;;
72125;SDS011;59999;51.676;22.650;2023-08-08T02:03:54;7.22;;;2.60;;
72125;SDS011;59999;51.676;22.650;2023-08-08T02:06:20;8.77;;;3.10;;
72125;SDS011;59999;51.676;22.650;2023-08-08T02:08:46;7.97;;;2.63;;
72125;SDS011;59999;51.676;22.650;2023-08-08T02:11:11;8.63;;;2.37;;
72125;SDS011;59999;51.676;22.650;2023-08-08T02:13:37;8.05;;;2.83;;
72125;SDS011;59999;51.676;22.650;2023-08-08T02:16:03;8.20;;;2.70;;
72125;SDS011;59999;51.676;22.650;2023-08-08T02:18:30;10.48;;;2.95;;
72125;SDS011;59999;51.676;22.650;2023-08-08T02:20:55;7.93;;;2.50;;
72125;SDS011;59999;51.676;22.650;2023-08-08T02:23:21;7.68;;;2.90;;
72125;SDS011;59999;51.676;22.650;2023-08-08T02:25:47;6.93;;;2.72;;
72125;SDS011;59999;51.676;22.650;2023-08-08T02:28:13;6.73;;;2.30;;
72125;SDS011;59999;51.676;22.650;2023-08-08T02:30:39;5.82;;;2.53;;
72125;SDS011;59999;51.676;22.650;2023-08-08T02:33:05;6.43;;;2.38;;
72125;SDS011;59999;51.676;22.650;2023-08-08T02:35:31;5.47;;;2.23;;
72125;SDS011;59999;51.676;22.650;2023-08-08T02:37:57;5.97;;;2.08;;
72125;SDS011;59999;51.676;22.650;2023-08-08T02:40:22;6.70;;;2.33;;
72125;SDS011;59999;51.676;22.650;2023-08-08T02:42:49;6.82;;;2.42;;
72125;SDS011;59999;51.676;22.650;2023-08-08T02:45:15;6.30;;;2.38;;
72125;SDS011;59999;51.676;22.650;2023-08-08T02:47:41;8.20;;;2.63;;
72125;SDS011;59999;51.676;22.650;2023-08-08T02:50:07;7.30;;;2.50;;
72125;SDS011;59999;51.676;22.650;2023-08-08T02:52:33;7.15;;;2.58;;
72125;SDS011;59999;51.676;22.650;2023-08-08T02:54:59;8.13;;;2.30;;
72125;SDS011;59999;51.676;22.650;2023-08-08T02:57:25;7.03;;;2.07;;
72125;SDS011;59999;51.676;22.650;2023-08-08T02:59:51;5.88;;;2.20;;
72125;SDS011;59999;51.676;22.650;2023-08-08T03:02:17;5.78;;;2.40;;
72125;SDS011;59999;51.676;22.650;2023-08-08T03:04:43;8.83;;;2.10;;
72125;SDS011;59999;51.676;22.650;2023-08-08T03:07:09;7.00;;;2.08;;
72125;SDS011;59999;51.676;22.650;2023-08-08T03:09:35;6.88;;;2.10;;
72125;SDS011;59999;51.676;22.650;2023-08-08T03:12:01;5.93;;;2.13;;
72125;SDS011;59999;51.676;22.650;2023-08-08T03:14:27;7.33;;;1.90;;
72125;SDS011;59999;51.676;22.650;2023-08-08T03:16:53;6.78;;;2.25;;
72125;SDS011;59999;51.676;22.650;2023-08-08T03:19:18;7.13;;;1.90;;
72125;SDS011;59999;51.676;22.650;2023-08-08T03:21:44;6.23;;;1.83;;
72125;SDS011;59999;51.676;22.650;2023-08-08T03:24:10;7.85;;;1.98;;
72125;SDS011;59999;51.676;22.650;2023-08-08T03:26:36;7.65;;;2.10;;
72125;SDS011;59999;51.676;22.650;2023-08-08T03:29:02;6.50;;;2.00;;
72125;SDS011;59999;51.676;22.650;2023-08-08T03:31:28;5.65;;;1.92;;
72125;SDS011;59999;51.676;22.650;2023-08-08T03:33:54;7.33;;;1.90;;
72125;SDS011;59999;51.676;22.650;2023-08-08T03:36:20;5.67;;;1.80;;
72125;SDS011;59999;51.676;22.650;2023-08-08T03:38:46;6.72;;;2.00;;
72125;SDS011;59999;51.676;22.650;2023-08-08T03:41:12;6.13;;;2.05;;
72125;SDS011;59999;51.676;22.650;2023-08-08T03:43:39;5.88;;;1.48;;
72125;SDS011;59999;51.676;22.650;2023-08-08T03:46:05;5.00;;;1.80;;
72125;SDS011;59999;51.676;22.650;2023-08-08T03:48:31;6.10;;;1.48;;
72125;SDS011;59999;51.676;22.650;2023-08-08T03:50:58;3.83;;;1.30;;
72125;SDS011;59999;51.676;22.650;2023-08-08T03:53:23;4.72;;;1.42;;
72125;SDS011;59999;51.676;22.650;2023-08-08T03:55:50;7.57;;;1.40;;
72125;SDS011;59999;51.676;22.650;2023-08-08T03:58:15;7.85;;;1.70;;
72125;SDS011;59999;51.676;22.650;2023-08-08T04:00:42;6.07;;;1.48;;
72125;SDS011;59999;51.676;22.650;2023-08-08T04:03:14;4.10;;;1.27;;
72125;SDS011;59999;51.676;22.650;2023-08-08T04:05:45;5.27;;;1.67;;
72125;SDS011;59999;51.676;22.650;2023-08-08T04:08:14;5.70;;;1.60;;
72125;SDS011;59999;51.676;22.650;2023-08-08T04:10:41;6.78;;;1.50;;
72125;SDS011;59999;51.676;22.650;2023-08-08T04:13:07;5.95;;;1.42;;
72125;SDS011;59999;51.676;22.650;2023-08-08T04:15:34;7.18;;;1.60;;
72125;SDS011;59999;51.676;22.650;2023-08-08T04:17:59;6.33;;;1.40;;
72125;SDS011;59999;51.676;22.650;2023-08-08T04:20:26;4.78;;;1.40;;
72125;SDS011;59999;51.676;22.650;2023-08-08T04:22:51;4.95;;;1.30;;
72125;SDS011;59999;51.676;22.650;2023-08-08T04:25:17;6.80;;;1.77;;
72125;SDS011;59999;51.676;22.650;2023-08-08T04:27:44;5.53;;;1.50;;
72125;SDS011;59999;51.676;22.650;2023-08-08T04:30:10;4.68;;;1.52;;
72125;SDS011;59999;51.676;22.650;2023-08-08T04:32:36;5.55;;;1.50;;
72125;SDS011;59999;51.676;22.650;2023-08-08T04:35:02;4.90;;;1.60;;
72125;SDS011;59999;51.676;22.650;2023-08-08T04:37:28;7.90;;;1.33;;
72125;SDS011;59999;51.676;22.650;2023-08-08T04:39:54;4.75;;;1.60;;
72125;SDS011;59999;51.676;22.650;2023-08-08T04:42:20;4.85;;;1.13;;
72125;SDS011;59999;51.676;22.650;2023-08-08T04:44:46;4.82;;;1.08;;
72125;SDS011;59999;51.676;22.650;2023-08-08T04:47:12;7.63;;;1.57;;
72125;SDS011;59999;51.676;22.650;2023-08-08T04:49:38;4.40;;;1.50;;
72125;SDS011;59999;51.676;22.650;2023-08-08T04:52:04;4.70;;;1.30;;
72125;SDS011;59999;51.676;22.650;2023-08-08T04:54:30;4.72;;;1.08;;
72125;SDS011;59999;51.676;22.650;2023-08-08T04:56:56;4.88;;;1.00;;
72125;SDS011;59999;51.676;22.650;2023-08-08T04:59:23;5.77;;;1.70;;
72125;SDS011;59999;51.676;22.650;2023-08-08T05:01:48;6.28;;;1.50;;
72125;SDS011;59999;51.676;22.650;2023-08-08T05:04:14;4.93;;;1.48;;
72125;SDS011;59999;51.676;22.650;2023-08-08T05:06:40;4.45;;;1.27;;
72125;SDS011;59999;51.676;22.650;2023-08-08T05:09:06;6.23;;;1.40;;
72125;SDS011;59999;51.676;22.650;2023-08-08T05:11:35;8.00;;;1.38;;
72125;SDS011;59999;51.676;22.650;2023-08-08T05:14:01;7.38;;;1.88;;
72125;SDS011;59999;51.676;22.650;2023-08-08T05:16:27;6.47;;;1.25;;
72125;SDS011;59999;51.676;22.650;2023-08-08T05:18:54;4.10;;;1.23;;
72125;SDS011;59999;51.676;22.650;2023-08-08T05:21:19;6.77;;;1.20;;
72125;SDS011;59999;51.676;22.650;2023-08-08T05:23:47;3.47;;;0.90;;
72125;SDS011;59999;51.676;22.650;2023-08-08T05:26:13;6.77;;;1.20;;
72125;SDS011;59999;51.676;22.650;2023-08-08T05:28:40;6.40;;;1.13;;
72125;SDS011;59999;51.676;22.650;2023-08-08T05:31:06;8.60;;;1.67;;
72125;SDS011;59999;51.676;22.650;2023-08-08T05:33:32;4.38;;;0.77;;
72125;SDS011;59999;51.676;22.650;2023-08-08T05:35:58;6.53;;;1.53;;
72125;SDS011;59999;51.676;22.650;2023-08-08T05:38:24;7.15;;;1.10;;
72125;SDS011;59999;51.676;22.650;2023-08-08T05:40:50;4.07;;;1.15;;
72125;SDS011;59999;51.676;22.650;2023-08-08T05:43:17;5.70;;;1.00;;
72125;SDS011;59999;51.676;22.650;2023-08-08T05:45:44;6.63;;;1.40;;
72125;SDS011;59999;51.676;22.650;2023-08-08T05:48:10;5.10;;;1.38;;
72125;SDS011;59999;51.676;22.650;2023-08-08T05:50:37;5.50;;;1.20;;
72125;SDS011;59999;51.676;22.650;2023-08-08T05:53:04;5.85;;;1.20;;
72125;SDS011;59999;51.676;22.650;2023-08-08T05:55:30;6.33;;;1.10;;
72125;SDS011;59999;51.676;22.650;2023-08-08T05:57:56;5.55;;;1.30;;
72125;SDS011;59999;51.676;22.650;2023-08-08T06:00:22;4.13;;;1.30;;
72125;SDS011;59999;51.676;22.650;2023-08-08T06:02:49;9.80;;;1.20;;
72125;SDS011;59999;51.676;22.650;2023-08-08T06:05:16;5.60;;;1.13;;
72125;SDS011;59999;51.676;22.650;2023-08-08T06:07:45;3.72;;;1.15;;
72125;SDS011;59999;51.676;22.650;2023-08-08T06:10:11;6.45;;;1.10;;
72125;SDS011;59999;51.676;22.650;2023-08-08T06:12:38;6.70;;;1.40;;
72125;SDS011;59999;51.676;22.650;2023-08-08T06:15:03;5.60;;;1.30;;
72125;SDS011;59999;51.676;22.650;2023-08-08T06:17:30;5.90;;;1.30;;
72125;SDS011;59999;51.676;22.650;2023-08-08T06:19:56;7.00;;;1.73;;
72125;SDS011;59999;51.676;22.650;2023-08-08T06:22:23;8.30;;;1.77;;
72125;SDS011;59999;51.676;22.650;2023-08-08T06:24:49;6.00;;;1.58;;
72125;SDS011;59999;51.676;22.650;2023-08-08T06:27:16;4.93;;;1.10;;
72125;SDS011;59999;51.676;22.650;2023-08-08T06:29:42;3.80;;;1.00;;
72125;SDS011;59999;51.676;22.650;2023-08-08T06:32:08;5.07;;;1.23;;
72125;SDS011;59999;51.676;22.650;2023-08-08T06:34:34;6.63;;;1.60;;
72125;SDS011;59999;51.676;22.650;2023-08-08T06:37:00;6.15;;;1.50;;
72125;SDS011;59999;51.676;22.650;2023-08-08T06:39:26;5.93;;;1.77;;
72125;SDS011;59999;51.676;22.650;2023-08-08T06:41:52;5.33;;;1.33;;
72125;SDS011;59999;51.676;22.650;2023-08-08T06:44:19;5.05;;;1.20;;
72125;SDS011;59999;51.676;22.650;2023-08-08T06:46:45;5.28;;;1.05;;
72125;SDS011;59999;51.676;22.650;2023-08-08T06:49:11;6.15;;;1.23;;
72125;SDS011;59999;51.676;22.650;2023-08-08T06:51:37;4.05;;;1.10;;
72125;SDS011;59999;51.676;22.650;2023-08-08T06:54:03;3.67;;;1.20;;
72125;SDS011;59999;51.676;22.650;2023-08-08T06:56:30;3.95;;;1.10;;
72125;SDS011;59999;51.676;22.650;2023-08-08T06:58:56;4.35;;;1.10;;
72125;SDS011;59999;51.676;22.650;2023-08-08T07:01:22;5.93;;;1.70;;
72125;SDS011;59999;51.676;22.650;2023-08-08T07:03:48;5.27;;;1.30;;
72125;SDS011;59999;51.676;22.650;2023-08-08T07:06:17;6.90;;;1.35;;
72125;SDS011;59999;51.676;22.650;2023-08-08T07:08:43;5.45;;;1.08;;
72125;SDS011;59999;51.676;22.650;2023-08-08T07:11:12;4.70;;;1.52;;
72125;SDS011;59999;51.676;22.650;2023-08-08T07:13:38;3.97;;;1.20;;
72125;SDS011;59999;51.676;22.650;2023-08-08T07:16:04;5.20;;;1.10;;
72125;SDS011;59999;51.676;22.650;2023-08-08T07:18:30;5.68;;;1.00;;
72125;SDS011;59999;51.676;22.650;2023-08-08T07:20:57;6.97;;;1.35;;
72125;SDS011;59999;51.676;22.650;2023-08-08T07:23:23;6.30;;;1.23;;
72125;SDS011;59999;51.676;22.650;2023-08-08T07:25:49;7.30;;;1.58;;
72125;SDS011;59999;51.676;22.650;2023-08-08T07:28:16;5.40;;;1.58;;
72125;SDS011;59999;51.676;22.650;2023-08-08T07:30:42;4.55;;;1.33;;
72125;SDS011;59999;51.676;22.650;2023-08-08T07:33:08;6.73;;;1.57;;
72125;SDS011;59999;51.676;22.650;2023-08-08T07:35:34;4.82;;;1.10;;
72125;SDS011;59999;51.676;22.650;2023-08-08T07:38:00;6.00;;;1.20;;
72125;SDS011;59999;51.676;22.650;2023-08-08T07:40:26;7.22;;;1.48;;
72125;SDS011;59999;51.676;22.650;2023-08-08T07:42:53;5.07;;;1.10;;
72125;SDS011;59999;51.676;22.650;2023-08-08T07:45:19;5.03;;;1.10;;
72125;SDS011;59999;51.676;22.650;2023-08-08T07:47:45;5.40;;;1.33;;
72125;SDS011;59999;51.676;22.650;2023-08-08T07:50:11;8.52;;;1.85;;
72125;SDS011;59999;51.676;22.650;2023-08-08T07:52:38;4.82;;;1.27;;
72125;SDS011;59999;51.676;22.650;2023-08-08T07:55:04;6.47;;;1.47;;
72125;SDS011;59999;51.676;22.650;2023-08-08T07:57:31;5.28;;;1.40;;
72125;SDS011;59999;51.676;22.650;2023-08-08T08:00:00;5.20;;;1.58;;
72125;SDS011;59999;51.676;22.650;2023-08-08T08:02:36;3.53;;;1.20;;
72125;SDS011;59999;51.676;22.650;2023-08-08T08:05:04;5.93;;;1.50;;
72125;SDS011;59999;51.676;22.650;2023-08-08T08:07:33;4.57;;;1.47;;
72125;SDS011;59999;51.676;22.650;2023-08-08T08:10:01;4.97;;;1.45;;
72125;SDS011;59999;51.676;22.650;2023-08-08T08:12:31;4.85;;;1.35;;
72125;SDS011;59999;51.676;22.650;2023-08-08T08:14:58;4.80;;;1.20;;
72125;SDS011;59999;51.676;22.650;2023-08-08T08:17:24;4.25;;;1.35;;
72125;SDS011;59999;51.676;22.650;2023-08-08T08:19:51;4.93;;;1.33;;
72125;SDS011;59999;51.676;22.650;2023-08-08T08:22:17;3.80;;;1.23;;
72125;SDS011;59999;51.676;22.650;2023-08-08T08:24:43;5.90;;;0.88;;
72125;SDS011;59999;51.676;22.650;2023-08-08T08:27:09;5.23;;;1.67;;
72125;SDS011;59999;51.676;22.650;2023-08-08T08:29:35;3.75;;;1.17;;
72125;SDS011;59999;51.676;22.650;2023-08-08T08:32:01;4.63;;;1.40;;
72125;SDS011;59999;51.676;22.650;2023-08-08T08:34:27;7.80;;;1.38;;
72125;SDS011;59999;51.676;22.650;2023-08-08T08:36:53;5.43;;;1.30;;
72125;SDS011;59999;51.676;22.650;2023-08-08T08:39:19;9.45;;;1.20;;
72125;SDS011;59999;51.676;22.650;2023-08-08T08:41:46;6.53;;;1.40;;
72125;SDS011;59999;51.676;22.650;2023-08-08T08:44:17;4.63;;;1.30;;
72125;SDS011;59999;51.676;22.650;2023-08-08T08:46:47;4.10;;;1.07;;
72125;SDS011;59999;51.676;22.650;2023-08-08T08:49:16;5.10;;;1.30;;
72125;SDS011;59999;51.676;22.650;2023-08-08T08:51:44;4.85;;;1.20;;
72125;SDS011;59999;51.676;22.650;2023-08-08T08:54:10;5.45;;;1.35;;
72125;SDS011;59999;51.676;22.650;2023-08-08T08:56:36;5.55;;;1.30;;
72125;SDS011;59999;51.676;22.650;2023-08-08T08:59:03;4.60;;;1.30;;
72125;SDS011;59999;51.676;22.650;2023-08-08T09:01:30;4.38;;;1.25;;
72125;SDS011;59999;51.676;22.650;2023-08-08T09:03:56;4.82;;;1.15;;
72125;SDS011;59999;51.676;22.650;2023-08-08T09:06:23;5.90;;;1.17;;
72125;SDS011;59999;51.676;22.650;2023-08-08T09:08:50;3.78;;;1.05;;
72125;SDS011;59999;51.676;22.650;2023-08-08T09:11:16;5.60;;;1.33;;
72125;SDS011;59999;51.676;22.650;2023-08-08T09:13:42;4.72;;;1.17;;
72125;SDS011;59999;51.676;22.650;2023-08-08T09:16:08;5.32;;;1.25;;
72125;SDS011;59999;51.676;22.650;2023-08-08T09:18:35;4.60;;;1.27;;
72125;SDS011;59999;51.676;22.650;2023-08-08T09:21:04;4.65;;;1.10;;
72125;SDS011;59999;51.676;22.650;2023-08-08T09:23:31;5.82;;;1.20;;
72125;SDS011;59999;51.676;22.650;2023-08-08T09:25:56;6.10;;;1.20;;
72125;SDS011;59999;51.676;22.650;2023-08-08T09:28:22;5.53;;;1.10;;
72125;SDS011;59999;51.676;22.650;2023-08-08T09:30:49;4.45;;;1.00;;
72125;SDS011;59999;51.676;22.650;2023-08-08T09:33:16;4.35;;;0.98;;
72125;SDS011;59999;51.676;22.650;2023-08-08T09:35:43;3.25;;;0.80;;
72125;SDS011;59999;51.676;22.650;2023-08-08T09:38:11;5.95;;;1.23;;
72125;SDS011;59999;51.676;22.650;2023-08-08T09:40:36;5.70;;;1.50;;
72125;SDS011;59999;51.676;22.650;2023-08-08T09:43:03;5.40;;;0.90;;
72125;SDS011;59999;51.676;22.650;2023-08-08T09:45:36;5.32;;;1.30;;
72125;SDS011;59999;51.676;22.650;2023-08-08T09:48:03;3.53;;;1.10;;
72125;SDS011;59999;51.676;22.650;2023-08-08T09:50:30;3.30;;;1.00;;
72125;SDS011;59999;51.676;22.650;2023-08-08T09:52:58;5.70;;;1.58;;
72125;SDS011;59999;51.676;22.650;2023-08-08T09:55:24;3.42;;;1.00;;
72125;SDS011;59999;51.676;22.650;2023-08-08T09:57:51;5.43;;;1.20;;
72125;SDS011;59999;51.676;22.650;2023-08-08T10:00:19;4.10;;;1.20;;
72125;SDS011;59999;51.676;22.650;2023-08-08T10:02:46;5.13;;;1.23;;
72125;SDS011;59999;51.676;22.650;2023-08-08T10:05:13;5.22;;;1.42;;
72125;SDS011;59999;51.676;22.650;2023-08-08T10:07:40;5.57;;;1.50;;
72125;SDS011;59999;51.676;22.650;2023-08-08T10:10:07;4.70;;;1.20;;
72125;SDS011;59999;51.676;22.650;2023-08-08T10:12:38;4.38;;;1.08;;
72125;SDS011;59999;51.676;22.650;2023-08-08T10:15:08;7.07;;;1.27;;
72125;SDS011;59999;51.676;22.650;2023-08-08T10:17:36;4.38;;;1.20;;
72125;SDS011;59999;51.676;22.650;2023-08-08T10:20:03;3.75;;;1.10;;
72125;SDS011;59999;51.676;22.650;2023-08-08T10:22:37;4.80;;;1.10;;
72125;SDS011;59999;51.676;22.650;2023-08-08T10:25:07;6.93;;;1.60;;
72125;SDS011;59999;51.676;22.650;2023-08-08T10:27:34;4.90;;;1.50;;
72125;SDS011;59999;51.676;22.650;2023-08-08T10:30:02;3.75;;;1.00;;
72125;SDS011;59999;51.676;22.650;2023-08-08T10:32:37;4.45;;;1.13;;
72125;SDS011;59999;51.676;22.650;2023-08-08T10:35:05;3.55;;;1.10;;
72125;SDS011;59999;51.676;22.650;2023-08-08T10:37:32;4.72;;;1.23;;
72125;SDS011;59999;51.676;22.650;2023-08-08T10:39:58;4.70;;;1.27;;
72125;SDS011;59999;51.676;22.650;2023-08-08T10:42:26;4.10;;;1.27;;
72125;SDS011;59999;51.676;22.650;2023-08-08T10:44:54;6.25;;;1.10;;
72125;SDS011;59999;51.676;22.650;2023-08-08T10:49:57;4.22;;;1.10;;
72125;SDS011;59999;51.676;22.650;2023-08-08T10:52:32;4.75;;;1.30;;
72125;SDS011;59999;51.676;22.650;2023-08-08T10:55:03;4.35;;;1.30;;
72125;SDS011;59999;51.676;22.650;2023-08-08T10:57:29;3.80;;;1.13;;
72125;SDS011;59999;51.676;22.650;2023-08-08T10:59:55;3.53;;;0.90;;
72125;SDS011;59999;51.676;22.650;2023-08-08T11:02:43;3.25;;;0.80;;
72125;SDS011;59999;51.676;22.650;2023-08-08T11:05:09;4.38;;;1.00;;
72125;SDS011;59999;51.676;22.650;2023-08-08T11:07:35;3.63;;;1.00;;
72125;SDS011;59999;51.676;22.650;2023-08-08T11:10:03;4.22;;;1.02;;
72125;SDS011;59999;51.676;22.650;2023-08-08T11:12:29;3.80;;;0.90;;
72125;SDS011;59999;51.676;22.650;2023-08-08T11:14:55;4.72;;;0.82;;
72125;SDS011;59999;51.676;22.650;2023-08-08T11:17:21;3.92;;;1.00;;
72125;SDS011;59999;51.676;22.650;2023-08-08T11:19:47;3.00;;;0.80;;
72125;SDS011;59999;51.676;22.650;2023-08-08T11:22:13;4.57;;;1.00;;
72125;SDS011;59999;51.676;22.650;2023-08-08T11:24:39;8.95;;;1.40;;
72125;SDS011;59999;51.676;22.650;2023-08-08T11:27:05;3.92;;;1.10;;
72125;SDS011;59999;51.676;22.650;2023-08-08T11:29:31;4.40;;;0.90;;
72125;SDS011;59999;51.676;22.650;2023-08-08T11:31:59;4.55;;;1.00;;
72125;SDS011;59999;51.676;22.650;2023-08-08T11:34:26;4.13;;;0.95;;
72125;SDS011;59999;51.676;22.650;2023-08-08T11:36:55;6.07;;;1.10;;
72125;SDS011;59999;51.676;22.650;2023-08-08T11:39:23;5.00;;;1.00;;
72125;SDS011;59999;51.676;22.650;2023-08-08T11:41:50;5.43;;;1.00;;
72125;SDS011;59999;51.676;22.650;2023-08-08T11:44:17;4.60;;;0.93;;
72125;SDS011;59999;51.676;22.650;2023-08-08T11:46:44;4.32;;;0.80;;
72125;SDS011;59999;51.676;22.650;2023-08-08T11:49:13;5.82;;;1.27;;
72125;SDS011;59999;51.676;22.650;2023-08-08T11:51:40;3.80;;;1.00;;
72125;SDS011;59999;51.676;22.650;2023-08-08T11:54:08;3.50;;;0.80;;
72125;SDS011;59999;51.676;22.650;2023-08-08T11:56:35;4.03;;;1.08;;
72125;SDS011;59999;51.676;22.650;2023-08-08T11:59:02;3.10;;;0.80;;
72125;SDS011;59999;51.676;22.650;2023-08-08T12:01:31;5.07;;;1.20;;
72125;SDS011;59999;51.676;22.650;2023-08-08T12:04:04;3.27;;;1.07;;
72125;SDS011;59999;51.676;22.650;2023-08-08T12:06:32;4.15;;;1.10;;
72125;SDS011;59999;51.676;22.650;2023-08-08T12:09:00;4.82;;;0.88;;
72125;SDS011;59999;51.676;22.650;2023-08-08T12:11:27;3.15;;;0.80;;
72125;SDS011;59999;51.676;22.650;2023-08-08T12:13:58;4.68;;;1.02;;
72125;SDS011;59999;51.676;22.650;2023-08-08T12:16:27;3.13;;;0.73;;
72125;SDS011;59999;51.676;22.650;2023-08-08T12:18:59;3.90;;;0.80;;
72125;SDS011;59999;51.676;22.650;2023-08-08T12:21:27;4.25;;;0.95;;
72125;SDS011;59999;51.676;22.650;2023-08-08T12:23:53;3.35;;;1.00;;
72125;SDS011;59999;51.676;22.650;2023-08-08T12:26:19;4.53;;;0.90;;
72125;SDS011;59999;51.676;22.650;2023-08-08T12:28:45;5.50;;;1.10;;
72125;SDS011;59999;51.676;22.650;2023-08-08T12:31:11;3.70;;;0.90;;
72125;SDS011;59999;51.676;22.650;2023-08-08T12:33:37;3.65;;;0.98;;
72125;SDS011;59999;51.676;22.650;2023-08-08T12:36:03;3.57;;;1.20;;
72125;SDS011;59999;51.676;22.650;2023-08-08T12:38:29;3.40;;;1.00;;
72125;SDS011;59999;51.676;22.650;2023-08-08T12:40:55;2.97;;;0.90;;
72125;SDS011;59999;51.676;22.650;2023-08-08T12:43:22;2.42;;;0.90;;
72125;SDS011;59999;51.676;22.650;2023-08-08T12:45:48;3.73;;;0.67;;
72125;SDS011;59999;51.676;22.650;2023-08-08T12:48:14;3.78;;;1.08;;
72125;SDS011;59999;51.676;22.650;2023-08-08T12:50:40;4.43;;;1.00;;
72125;SDS011;59999;51.676;22.650;2023-08-08T12:53:06;6.60;;;1.13;;
72125;SDS011;59999;51.676;22.650;2023-08-08T12:55:33;3.67;;;0.80;;
72125;SDS011;59999;51.676;22.650;2023-08-08T12:57:59;4.30;;;1.10;;
72125;SDS011;59999;51.676;22.650;2023-08-08T13:00:25;4.10;;;1.00;;
72125;SDS011;59999;51.676;22.650;2023-08-08T13:02:51;2.95;;;0.77;;
72125;SDS011;59999;51.676;22.650;2023-08-08T13:05:17;3.80;;;1.03;;
72125;SDS011;59999;51.676;22.650;2023-08-08T13:07:43;3.90;;;1.00;;
72125;SDS011;59999;51.676;22.650;2023-08-08T13:10:09;3.30;;;0.70;;
72125;SDS011;59999;51.676;22.650;2023-08-08T13:12:35;3.83;;;1.10;;
72125;SDS011;59999;51.676;22.650;2023-08-08T13:15:01;9.33;;;1.27;;
72125;SDS011;59999;51.676;22.650;2023-08-08T13:17:27;4.75;;;1.30;;
72125;SDS011;59999;51.676;22.650;2023-08-08T13:19:53;3.75;;;0.90;;
72125;SDS011;59999;51.676;22.650;2023-08-08T13:22:19;3.95;;;0.88;;
72125;SDS011;59999;51.676;22.650;2023-08-08T13:24:45;4.87;;;1.00;;
72125;SDS011;59999;51.676;22.650;2023-08-08T13:27:11;3.70;;;1.30;;
72125;SDS011;59999;51.676;22.650;2023-08-08T13:29:37;5.13;;;0.98;;
72125;SDS011;59999;51.676;22.650;2023-08-08T13:32:03;3.67;;;1.00;;
72125;SDS011;59999;51.676;22.650;2023-08-08T13:34:29;2.97;;;0.98;;
72125;SDS011;59999;51.676;22.650;2023-08-08T13:36:55;4.30;;;1.00;;
72125;SDS011;59999;51.676;22.650;2023-08-08T13:39:23;2.38;;;0.70;;
72125;SDS011;59999;51.676;22.650;2023-08-08T13:41:49;3.93;;;1.10;;
72125;SDS011;59999;51.676;22.650;2023-08-08T13:44:15;3.20;;;0.90;;
72125;SDS011;59999;51.676;22.650;2023-08-08T13:46:41;3.13;;;1.10;;
72125;SDS011;59999;51.676;22.650;2023-08-08T13:49:07;3.72;;;0.98;;
72125;SDS011;59999;51.676;22.650;2023-08-08T13:51:33;3.90;;;1.30;;
72125;SDS011;59999;51.676;22.650;2023-08-08T13:54:02;5.70;;;0.93;;
72125;SDS011;59999;51.676;22.650;2023-08-08T13:56:29;2.75;;;0.75;;
72125;SDS011;59999;51.676;22.650;2023-08-08T13:58:55;3.87;;;0.80;;
72125;SDS011;59999;51.676;22.650;2023-08-08T14:01:21;3.30;;;0.80;;
72125;SDS011;59999;51.676;22.650;2023-08-08T14:03:49;4.53;;;1.05;;
72125;SDS011;59999;51.676;22.650;2023-08-08T14:06:15;3.92;;;0.80;;
72125;SDS011;59999;51.676;22.650;2023-08-08T14:08:41;3.53;;;0.97;;
72125;SDS011;59999;51.676;22.650;2023-08-08T14:11:07;3.95;;;0.90;;
72125;SDS011;59999;51.676;22.650;2023-08-08T14:13:33;5.47;;;1.40;;
72125;SDS011;59999;51.676;22.650;2023-08-08T14:16:05;4.30;;;0.90;;
72125;SDS011;59999;51.676;22.650;2023-08-08T14:18:31;4.73;;;0.90;;
72125;SDS011;59999;51.676;22.650;2023-08-08T14:20:57;3.70;;;1.10;;
72125;SDS011;59999;51.676;22.650;2023-08-08T14:23:23;3.75;;;1.23;;
72125;SDS011;59999;51.676;22.650;2023-08-08T14:25:50;3.38;;;0.98;;
72125;SDS011;59999;51.676;22.650;2023-08-08T14:28:15;4.07;;;0.97;;
72125;SDS011;59999;51.676;22.650;2023-08-08T14:30:44;6.30;;;0.80;;
72125;SDS011;59999;51.676;22.650;2023-08-08T14:33:12;2.67;;;0.82;;
72125;SDS011;59999;51.676;22.650;2023-08-08T14:35:41;4.22;;;1.45;;